createdAt,value
2018-12-11T00:01:00.528Z,99226.01
2018-12-11T00:03:29.608Z,99226.55
2018-12-11T00:05:59.100Z,99219.69
2018-12-11T00:08:28.227Z,99219.79
2018-12-11T00:10:57.336Z,99228.72
2018-12-11T00:13:26.435Z,99234.69
2018-12-11T00:15:55.513Z,99232.88
2018-12-11T00:18:24.621Z,99229.70
2018-12-11T00:20:53.726Z,99228.77
2018-12-11T00:23:22.843Z,99229.11
2018-12-11T00:25:51.968Z,99224.05
2018-12-11T00:28:21.131Z,99234.24
2018-12-11T00:30:50.236Z,99231.09
2018-12-11T00:33:19.332Z,99236.72
2018-12-11T00:35:48.457Z,99235.69
2018-12-11T00:38:17.586Z,99233.20
2018-12-11T00:40:46.736Z,99232.42
2018-12-11T00:43:15.845Z,99229.07
2018-12-11T00:45:44.982Z,99230.75
2018-12-11T00:48:14.097Z,99230.95
2018-12-11T00:50:43.230Z,99239.09
2018-12-11T00:53:12.361Z,99234.75
2018-12-11T00:55:41.472Z,99242.98
2018-12-11T00:58:10.614Z,99247.50
2018-12-11T01:00:39.736Z,99244.34
2018-12-11T01:03:08.856Z,99249.48
2018-12-11T01:05:37.963Z,99250.12
2018-12-11T01:08:07.133Z,99251.50
2018-12-11T01:10:36.261Z,99254.36
2018-12-11T01:13:05.413Z,99253.91
2018-12-11T01:15:34.556Z,99254.89
2018-12-11T01:18:03.664Z,99254.89
2018-12-11T01:20:32.813Z,99258.89
2018-12-11T01:23:01.930Z,99258.70
2018-12-11T01:25:31.036Z,99261.85
2018-12-11T01:28:00.177Z,99258.80
2018-12-11T01:30:29.272Z,99258.85
2018-12-11T01:32:58.373Z,99260.19
2018-12-11T01:35:27.460Z,99254.84
2018-12-11T01:37:56.558Z,99263.67
2018-12-11T01:40:25.657Z,99261.70
2018-12-11T01:42:54.769Z,99258.20
2018-12-11T01:45:23.859Z,99254.52
2018-12-11T01:47:52.998Z,99267.22
2018-12-11T01:50:22.118Z,99266.88
2018-12-11T01:52:51.206Z,99261.86
2018-12-11T01:55:20.366Z,99266.05
2018-12-11T01:57:49.478Z,99271.87
2018-12-11T02:00:18.609Z,99271.22
2018-12-11T02:02:47.757Z,99269.05
2018-12-11T02:05:16.900Z,99270.57
2018-12-11T02:07:46.025Z,99277.89
2018-12-11T02:10:15.130Z,99269.74
2018-12-11T02:12:44.250Z,99277.28
2018-12-11T02:15:13.378Z,99275.30
2018-12-11T02:17:42.515Z,99285.95
2018-12-11T02:20:11.608Z,99276.94
2018-12-11T02:22:40.708Z,99275.30
2018-12-11T02:25:09.809Z,99278.27
2018-12-11T02:27:38.877Z,99282.95
2018-12-11T02:30:08.019Z,99280.94
2018-12-11T02:32:37.189Z,99281.44
2018-12-11T02:35:06.323Z,99274.28
2018-12-11T02:37:35.442Z,99284.63
2018-12-11T02:40:04.547Z,99288.28
2018-12-11T02:42:33.654Z,99287.94
2018-12-11T02:45:02.754Z,99281.78
2018-12-11T02:47:31.840Z,99292.58
2018-12-11T02:50:00.937Z,99288.73
2018-12-11T02:52:30.013Z,99288.20
2018-12-11T02:54:59.109Z,99280.55
2018-12-11T02:57:28.218Z,99280.89
2018-12-11T02:59:57.327Z,99291.55
2018-12-11T03:02:26.423Z,99286.22
2018-12-11T03:04:55.526Z,99287.84
2018-12-11T03:07:24.631Z,99283.55
2018-12-11T03:09:53.730Z,99281.88
2018-12-11T03:12:22.855Z,99292.88
2018-12-11T03:14:51.981Z,99295.89
2018-12-11T03:17:21.121Z,99297.38
2018-12-11T03:19:50.229Z,99293.23
2018-12-11T03:22:19.336Z,99297.52
2018-12-11T03:24:48.438Z,99293.31
2018-12-11T03:27:17.556Z,99296.33
2018-12-11T03:29:46.650Z,99293.47
2018-12-11T03:32:15.772Z,99296.48
2018-12-11T03:34:44.865Z,99296.44
2018-12-11T03:37:13.985Z,99298.06
2018-12-11T03:39:43.109Z,99296.44
2018-12-11T03:42:12.224Z,99297.42
2018-12-11T03:44:41.337Z,99298.99
2018-12-11T03:47:10.429Z,99299.94
2018-12-11T03:49:39.524Z,99306.25
2018-12-11T03:52:08.645Z,99310.59
2018-12-11T03:54:37.746Z,99314.63
2018-12-11T03:57:06.876Z,99307.78
2018-12-11T03:59:35.969Z,99317.05
2018-12-11T04:02:05.068Z,99322.87
2018-12-11T04:04:34.175Z,99329.92
2018-12-11T04:07:03.312Z,99326.27
2018-12-11T04:09:32.407Z,99339.39
2018-12-11T04:12:01.826Z,99346.09
2018-12-11T04:14:30.966Z,99341.76
2018-12-11T04:17:00.088Z,99343.19
2018-12-11T04:19:29.467Z,99343.23
2018-12-11T04:21:58.581Z,99343.09
2018-12-11T04:24:27.691Z,99351.23
2018-12-11T04:26:56.800Z,99351.23
2018-12-11T04:29:25.902Z,99352.37
2018-12-11T04:31:55.006Z,99347.73
2018-12-11T04:34:24.109Z,99347.03
2018-12-11T04:36:53.217Z,99348.66
2018-12-11T04:39:22.307Z,99357.34
2018-12-11T04:41:51.406Z,99363.25
2018-12-11T04:44:20.616Z,99356.58
2018-12-11T04:46:49.729Z,99368.98
2018-12-11T04:49:18.785Z,99369.72
2018-12-11T04:51:47.854Z,99377.34
2018-12-11T04:54:16.935Z,99375.94
2018-12-11T04:56:46.093Z,99372.98
2018-12-11T04:59:15.212Z,99381.48
2018-12-11T05:01:44.439Z,99385.33
2018-12-11T05:04:13.553Z,99382.47
2018-12-11T05:06:42.650Z,99384.28
2018-12-11T05:09:11.754Z,99391.29
2018-12-11T05:11:40.882Z,99350.73
2018-12-11T05:14:09.972Z,99387.20
2018-12-11T05:16:39.111Z,99386.80
2018-12-11T05:19:08.827Z,99392.63
2018-12-11T05:21:37.915Z,99387.62
2018-12-11T05:24:07.033Z,99401.30
2018-12-11T05:26:36.121Z,99400.17
2018-12-11T05:29:05.195Z,99410.00
2018-12-11T05:31:34.311Z,99409.98
2018-12-11T05:34:03.401Z,99407.25
2018-12-11T05:36:32.509Z,99396.59
2018-12-11T05:39:01.585Z,99400.73
2018-12-11T05:41:30.687Z,99415.81
2018-12-11T05:43:59.833Z,99417.33
2018-12-11T05:46:29.015Z,99418.05
2018-12-11T05:48:58.125Z,99421.83
2018-12-11T05:51:27.266Z,99431.44
2018-12-11T05:53:56.370Z,99423.94
2018-12-11T05:56:25.494Z,99417.57
2018-12-11T05:58:54.697Z,99425.76
2018-12-11T06:01:23.785Z,99429.95
2018-12-11T06:03:52.857Z,99427.09
2018-12-11T06:06:22.053Z,99429.11
2018-12-11T06:08:51.166Z,99437.80
2018-12-11T06:11:20.248Z,99434.15
2018-12-11T06:13:49.374Z,99441.44
2018-12-11T06:16:18.492Z,99445.31
2018-12-11T06:18:47.618Z,99453.16
2018-12-11T06:21:16.723Z,99454.48
2018-12-11T06:23:45.859Z,99456.17
2018-12-11T06:26:14.937Z,99463.52
2018-12-11T06:28:44.054Z,99455.82
2018-12-11T06:31:13.162Z,99465.55
2018-12-11T06:33:42.310Z,99469.13
2018-12-11T06:36:11.384Z,99462.81
2018-12-11T06:38:40.613Z,99466.19
2018-12-11T06:41:09.713Z,99468.84
2018-12-11T06:43:38.820Z,99472.03
2018-12-11T06:46:07.932Z,99474.74
2018-12-11T06:48:37.009Z,99470.47
2018-12-11T06:51:06.124Z,99482.51
2018-12-11T06:53:35.226Z,99471.02
2018-12-11T06:56:04.321Z,99472.54
2018-12-11T06:58:33.452Z,99476.55
2018-12-11T07:01:02.558Z,99478.62
2018-12-11T07:03:31.681Z,99479.13
2018-12-11T07:06:00.899Z,99475.03
2018-12-11T07:08:29.999Z,99483.97
2018-12-11T07:10:59.221Z,99486.98
2018-12-11T07:13:28.333Z,99489.41
2018-12-11T07:15:57.409Z,99498.45
2018-12-11T07:18:26.497Z,99504.23
2018-12-11T07:20:55.584Z,99512.64
2018-12-11T07:23:24.717Z,99513.97
2018-12-11T07:25:53.829Z,99522.97
2018-12-11T07:28:22.923Z,99519.20
2018-12-11T07:30:52.044Z,99525.97
2018-12-11T07:33:21.146Z,99523.31
2018-12-11T07:35:50.281Z,99522.66
2018-12-11T07:38:19.508Z,99530.72
2018-12-11T07:40:48.621Z,99529.55
2018-12-11T07:43:17.836Z,99540.05
2018-12-11T07:45:46.930Z,99537.34
2018-12-11T07:48:16.016Z,99538.39
2018-12-11T07:50:45.137Z,99545.77
2018-12-11T07:53:14.653Z,99544.49
2018-12-11T07:55:43.756Z,99543.94
2018-12-11T07:58:12.886Z,99561.93
2018-12-11T08:00:41.993Z,99557.63
2018-12-11T08:03:11.103Z,99558.46
2018-12-11T08:05:40.372Z,99557.67
2018-12-11T08:08:13.517Z,99564.73
2018-12-11T08:10:42.608Z,99568.05
2018-12-11T08:13:11.718Z,99568.73
2018-12-11T08:15:40.833Z,99569.12
2018-12-11T08:18:09.963Z,99578.50
2018-12-11T08:20:39.047Z,99579.99
2018-12-11T08:23:08.293Z,99583.16
2018-12-11T08:25:37.397Z,99580.52
2018-12-11T08:28:06.530Z,99582.20
2018-12-11T08:30:35.641Z,99581.86
2018-12-11T08:33:04.741Z,99582.58
2018-12-11T08:35:33.818Z,99589.94
2018-12-11T08:38:02.949Z,99588.20
2018-12-11T08:40:32.110Z,99582.58
2018-12-11T08:43:01.230Z,99588.77
2018-12-11T08:45:30.353Z,99584.00
2018-12-11T08:47:59.515Z,99582.85
2018-12-11T08:51:02.500Z,99583.04
2018-12-11T08:53:31.593Z,99578.91
2018-12-11T08:56:00.694Z,99581.28
2018-12-11T08:58:29.837Z,99579.40
2018-12-11T09:00:58.975Z,99584.47
2018-12-11T09:03:28.261Z,99581.81
2018-12-11T09:05:57.425Z,99578.78
2018-12-11T09:08:26.549Z,99580.77
2018-12-11T09:10:55.661Z,99592.84
2018-12-11T09:13:24.767Z,99592.80
2018-12-11T09:15:53.870Z,99589.77
2018-12-11T09:18:22.988Z,99586.73
2018-12-11T09:20:52.105Z,99578.48
2018-12-11T09:23:21.217Z,99575.37
2018-12-11T09:25:50.292Z,99577.72
2018-12-11T09:28:19.405Z,99565.40
2018-12-11T09:30:48.535Z,99571.72
2018-12-11T09:33:17.661Z,99567.72
2018-12-11T09:35:46.811Z,99571.72
2018-12-11T09:38:15.906Z,99578.45
2018-12-11T09:40:44.998Z,99580.13
2018-12-11T09:43:14.130Z,99581.70
2018-12-11T09:45:43.255Z,99580.63
2018-12-11T09:48:12.364Z,99582.73
2018-12-11T09:50:41.471Z,99580.98
2018-12-11T09:53:10.561Z,99567.09
2018-12-11T09:55:39.683Z,99574.53
2018-12-11T09:58:08.796Z,99576.95
2018-12-11T10:00:38.869Z,99568.34
2018-12-11T10:03:08.150Z,99572.34
2018-12-11T10:05:37.251Z,99567.86
2018-12-11T10:08:06.423Z,99572.03
2018-12-11T10:10:35.637Z,99577.94
2018-12-11T10:13:04.749Z,99575.92
2018-12-11T10:15:33.910Z,99571.03
2018-12-11T10:18:02.983Z,99574.37
2018-12-11T10:20:32.073Z,99568.34
2018-12-11T10:23:02.454Z,99568.95
2018-12-11T10:25:31.560Z,99569.59
2018-12-11T10:28:00.664Z,99568.29
2018-12-11T10:30:33.805Z,99574.94
2018-12-11T10:33:03.024Z,99572.27
2018-12-11T10:35:32.196Z,99567.20
2018-12-11T10:38:01.302Z,99576.21
2018-12-11T10:40:30.393Z,99568.16
2018-12-11T10:42:59.490Z,99568.88
2018-12-11T10:45:28.619Z,99565.25
2018-12-11T10:47:57.768Z,99563.34
2018-12-11T10:50:26.898Z,99560.68
2018-12-11T10:52:56.033Z,99556.02
2018-12-11T10:55:25.121Z,99557.02
2018-12-11T10:57:54.226Z,99553.69
2018-12-11T11:00:28.417Z,99545.66
2018-12-11T11:03:02.557Z,99556.88
2018-12-11T11:05:31.661Z,99555.41
2018-12-11T11:08:00.789Z,99555.76
2018-12-11T11:10:29.913Z,99556.75
2018-12-11T11:12:59.171Z,99553.73
2018-12-11T11:15:28.653Z,99559.09
2018-12-11T11:17:57.757Z,99558.73
2018-12-11T11:20:26.877Z,99557.05
2018-12-11T11:22:56.101Z,99554.39
2018-12-11T11:25:25.225Z,99547.38
2018-12-11T11:27:54.333Z,99551.73
2018-12-11T11:30:23.536Z,99558.06
2018-12-11T11:32:52.757Z,99558.92
2018-12-11T11:35:21.870Z,99562.92
2018-12-11T11:37:50.950Z,99568.09
2018-12-11T11:40:20.080Z,99564.91
2018-12-11T11:42:49.205Z,99562.05
2018-12-11T11:45:18.299Z,99567.06
2018-12-11T11:47:47.436Z,99565.06
2018-12-11T11:50:18.426Z,99567.44
2018-12-11T11:52:47.573Z,99567.44
2018-12-11T11:55:16.680Z,99569.77
2018-12-11T11:57:45.817Z,99577.13
2018-12-11T12:00:15.956Z,99581.30
2018-12-11T12:02:45.040Z,99578.48
2018-12-11T12:05:15.159Z,99575.80
2018-12-11T12:07:44.249Z,99578.14
2018-12-11T12:10:14.041Z,99576.46
2018-12-11T12:12:43.156Z,99584.16
2018-12-11T12:15:12.281Z,99580.50
2018-12-11T12:17:41.365Z,99579.52
2018-12-11T12:20:11.012Z,99585.52
2018-12-11T12:22:40.122Z,99575.16
2018-12-11T12:25:09.314Z,99569.75
2018-12-11T12:27:38.451Z,99584.83
2018-12-11T12:30:08.293Z,99591.17
2018-12-11T12:32:37.385Z,99588.84
2018-12-11T12:35:07.029Z,99591.88
2018-12-11T12:37:36.144Z,99592.88
2018-12-11T12:40:05.356Z,99597.90
2018-12-11T12:42:34.466Z,99601.55
2018-12-11T12:45:03.575Z,99599.05
2018-12-11T12:47:32.722Z,99605.58
2018-12-11T12:50:01.850Z,99609.39
2018-12-11T12:52:30.928Z,99607.56
2018-12-11T12:55:00.119Z,99604.53
2018-12-11T12:57:29.209Z,99605.86
2018-12-11T12:59:58.309Z,99607.17
2018-12-11T13:02:27.422Z,99613.20
2018-12-11T13:04:56.521Z,99606.52
2018-12-11T13:07:25.677Z,99608.01
2018-12-11T13:09:54.753Z,99614.19
2018-12-11T13:12:24.027Z,99608.34
2018-12-11T13:14:53.153Z,99608.64
2018-12-11T13:17:22.233Z,99614.30
2018-12-11T13:19:51.331Z,99619.83
2018-12-11T13:22:20.810Z,99620.48
2018-12-11T13:24:50.059Z,99622.63
2018-12-11T13:27:19.130Z,99618.06
2018-12-11T13:29:48.229Z,99623.22
2018-12-11T13:32:17.343Z,99633.98
2018-12-11T13:34:46.429Z,99629.28
2018-12-11T13:37:15.654Z,99632.51
2018-12-11T13:39:44.762Z,99632.81
2018-12-11T13:42:13.996Z,99639.83
2018-12-11T13:44:43.130Z,99633.80
2018-12-11T13:47:12.420Z,99640.52
2018-12-11T13:49:41.504Z,99637.55
2018-12-11T13:52:10.605Z,99640.19
2018-12-11T13:54:39.703Z,99640.52
2018-12-11T13:57:08.819Z,99649.52
2018-12-11T13:59:37.928Z,99643.44
2018-12-11T14:02:07.028Z,99647.78
2018-12-11T14:04:36.128Z,99648.38
2018-12-11T14:07:05.240Z,99641.84
2018-12-11T14:09:41.631Z,99652.98
2018-12-11T14:12:11.433Z,99651.30
2018-12-11T14:14:40.512Z,99650.64
2018-12-11T14:17:09.586Z,99650.09
2018-12-11T14:19:38.714Z,99651.56
2018-12-11T14:22:07.781Z,99647.86
2018-12-11T14:24:36.880Z,99650.87
2018-12-11T14:27:05.985Z,99642.91
2018-12-11T14:29:35.117Z,99645.66
2018-12-11T14:32:04.231Z,99641.88
2018-12-11T14:34:33.325Z,99641.11
2018-12-11T14:37:02.425Z,99644.74
2018-12-11T14:39:31.657Z,99640.89
2018-12-11T14:42:00.774Z,99639.97
2018-12-11T14:44:29.867Z,99639.45
2018-12-11T14:46:58.985Z,99640.93
2018-12-11T14:49:28.090Z,99644.86
2018-12-11T14:51:57.188Z,99648.48
2018-12-11T14:54:26.278Z,99650.04
2018-12-11T14:56:55.420Z,99645.52
2018-12-11T14:59:24.524Z,99643.74
2018-12-11T15:01:53.637Z,99642.41
2018-12-11T15:04:22.729Z,99646.13
2018-12-11T15:06:51.857Z,99654.19
2018-12-11T15:09:25.984Z,99653.11
2018-12-11T15:11:55.557Z,99650.66
2018-12-11T15:14:24.714Z,99651.22
2018-12-11T15:16:53.914Z,99656.55
2018-12-11T15:19:23.028Z,99652.20
2018-12-11T15:21:52.136Z,99660.16
2018-12-11T15:24:21.267Z,99656.72
2018-12-11T15:26:50.390Z,99661.03
2018-12-11T15:29:19.514Z,99664.59
2018-12-11T15:31:48.656Z,99668.59
2018-12-11T15:34:17.796Z,99658.67
2018-12-11T15:36:46.963Z,99669.18
2018-12-11T15:39:16.101Z,99675.20
2018-12-11T15:41:45.234Z,99673.45
2018-12-11T15:44:14.353Z,99674.37
2018-12-11T15:46:43.608Z,99679.07
2018-12-11T15:49:12.703Z,99667.19
2018-12-11T15:51:41.926Z,99680.75
2018-12-11T15:54:11.047Z,99675.42
2018-12-11T15:56:40.546Z,99682.72
2018-12-11T15:59:09.633Z,99682.13
2018-12-11T16:01:38.777Z,99687.06
2018-12-11T16:04:07.891Z,99687.66
2018-12-11T16:06:37.083Z,99685.14
2018-12-11T16:09:10.808Z,99683.45
2018-12-11T16:11:39.941Z,99692.25
2018-12-11T16:14:09.064Z,99691.41
2018-12-11T16:16:38.161Z,99693.09
2018-12-11T16:19:07.255Z,99696.84
2018-12-11T16:21:36.416Z,99691.87
2018-12-11T16:24:05.561Z,99704.03
2018-12-11T16:26:34.669Z,99693.05
2018-12-11T16:29:03.770Z,99688.15
2018-12-11T16:31:32.884Z,99693.76
2018-12-11T16:34:02.101Z,99699.23
2018-12-11T16:36:31.316Z,99695.79
2018-12-11T16:39:00.410Z,99696.28
2018-12-11T16:41:29.553Z,99700.45
2018-12-11T16:43:58.670Z,99708.27
2018-12-11T16:46:27.794Z,99704.26
2018-12-11T16:48:56.884Z,99706.09
2018-12-11T16:51:26.026Z,99706.80
2018-12-11T16:53:55.129Z,99706.80
2018-12-11T16:56:24.226Z,99710.81
2018-12-11T16:58:53.338Z,99708.36
2018-12-11T17:01:22.483Z,99709.84
2018-12-11T17:03:51.578Z,99713.63
2018-12-11T17:06:20.685Z,99713.72
2018-12-11T17:08:49.773Z,99716.92
2018-12-11T17:11:18.921Z,99720.42
2018-12-11T17:13:48.020Z,99723.80
2018-12-11T17:16:17.193Z,99716.38
2018-12-11T17:18:46.308Z,99718.74
2018-12-11T17:21:15.459Z,99721.53
2018-12-11T17:23:44.569Z,99724.06
2018-12-11T17:26:13.671Z,99722.45
2018-12-11T17:28:42.821Z,99722.59
2018-12-11T17:31:11.917Z,99726.45
2018-12-11T17:33:41.156Z,99728.34
2018-12-11T17:36:10.233Z,99728.83
2018-12-11T17:38:39.329Z,99734.05
2018-12-11T17:41:08.451Z,99731.02
2018-12-11T17:43:37.592Z,99729.80
2018-12-11T17:46:06.673Z,99739.59
2018-12-11T17:48:41.462Z,99741.03
2018-12-11T17:51:07.216Z,99738.25
2018-12-11T17:53:36.609Z,99749.77
2018-12-11T17:56:05.692Z,99749.70
2018-12-11T17:58:34.795Z,99754.73
2018-12-11T18:01:03.917Z,99751.95
2018-12-11T18:03:33.363Z,99749.48
2018-12-11T18:06:02.458Z,99753.98
2018-12-11T18:08:31.578Z,99761.96
2018-12-11T18:11:00.702Z,99763.52
2018-12-11T18:13:29.827Z,99765.01
2018-12-11T18:15:59.010Z,99767.47
2018-12-11T18:18:28.243Z,99767.17
2018-12-11T18:20:58.105Z,99768.96
2018-12-11T18:23:27.363Z,99773.82
2018-12-11T18:25:56.514Z,99779.05
2018-12-11T18:28:25.634Z,99783.12
2018-12-11T18:30:54.786Z,99780.39
2018-12-11T18:33:24.096Z,99777.73
2018-12-11T18:35:53.790Z,99775.62
2018-12-11T18:38:23.069Z,99784.33
2018-12-11T18:40:52.267Z,99779.03
2018-12-11T18:43:21.484Z,99791.62
2018-12-11T18:45:50.797Z,99786.31
2018-12-11T18:48:19.948Z,99791.32
2018-12-11T18:50:49.076Z,99791.86
2018-12-11T18:53:18.257Z,99796.33
2018-12-11T18:55:47.436Z,99795.02
2018-12-11T18:58:16.592Z,99798.34
2018-12-11T19:00:45.819Z,99797.44
2018-12-11T19:03:15.004Z,99794.53
2018-12-11T19:05:44.141Z,99803.38
2018-12-11T19:08:13.257Z,99797.85
2018-12-11T19:10:42.396Z,99790.59
2018-12-11T19:13:11.551Z,99791.44
2018-12-11T19:15:40.796Z,99786.63
2018-12-11T19:18:10.184Z,99793.58
2018-12-11T19:20:39.294Z,99794.09
2018-12-11T19:23:16.790Z,99797.24
2018-12-11T19:25:45.886Z,99797.97
2018-12-11T19:28:15.025Z,99791.50
2018-12-11T19:30:44.125Z,99797.97
2018-12-11T19:33:13.232Z,99799.73
2018-12-11T19:35:42.313Z,99804.96
2018-12-11T19:38:11.475Z,99796.53
2018-12-11T19:40:43.841Z,99804.23
2018-12-11T19:43:11.814Z,99807.42
2018-12-11T19:45:40.976Z,99802.55
2018-12-11T19:48:10.190Z,99808.83
2018-12-11T19:50:39.319Z,99805.63
2018-12-11T19:53:08.457Z,99813.23
2018-12-11T19:55:37.564Z,99807.92
2018-12-11T19:58:07.460Z,99813.30
2018-12-11T20:00:36.566Z,99816.42
2018-12-11T20:03:10.670Z,99810.58
2018-12-11T20:05:36.794Z,99809.86
2018-12-11T20:08:05.901Z,99813.89
2018-12-11T20:10:34.980Z,99813.45
2018-12-11T20:13:04.058Z,99814.42
2018-12-11T20:15:33.690Z,99814.19
2018-12-11T20:18:03.064Z,99817.68
2018-12-11T20:20:32.177Z,99814.78
2018-12-11T20:23:01.329Z,99818.41
2018-12-11T20:25:30.415Z,99813.59
2018-12-11T20:27:59.565Z,99822.88
2018-12-11T20:30:28.684Z,99810.58
2018-12-11T20:32:57.745Z,99808.39
2018-12-11T20:35:26.832Z,99821.66
2018-12-11T20:37:55.926Z,99815.76
2018-12-11T20:40:25.046Z,99827.46
2018-12-11T20:42:54.136Z,99820.27
2018-12-11T20:45:23.202Z,99831.16
2018-12-11T20:47:52.302Z,99831.88
2018-12-11T20:50:21.553Z,99827.98
2018-12-11T20:52:50.636Z,99826.89
2018-12-11T20:55:19.726Z,99832.92
2018-12-11T20:57:48.836Z,99838.95
2018-12-11T21:00:17.952Z,99833.66
2018-12-11T21:02:47.056Z,99836.47
2018-12-11T21:05:16.147Z,99837.67
2018-12-11T21:07:45.241Z,99836.51
2018-12-11T21:10:14.313Z,99836.87
2018-12-11T21:12:43.385Z,99843.38
2018-12-11T21:15:12.457Z,99839.28
2018-12-11T21:17:41.561Z,99845.52
2018-12-11T21:20:10.644Z,99848.41
2018-12-11T21:22:39.742Z,99852.39
2018-12-11T21:25:08.854Z,99851.78
2018-12-11T21:27:37.933Z,99858.27
2018-12-11T21:30:08.659Z,99857.21
2018-12-11T21:32:37.765Z,99858.26
2018-12-11T21:35:08.563Z,99855.48
2018-12-11T21:37:37.671Z,99853.31
2018-12-11T21:40:07.353Z,99859.30
2018-12-11T21:42:36.432Z,99858.98
2018-12-11T21:45:06.583Z,99858.70
2018-12-11T21:47:35.646Z,99859.10
2018-12-11T21:50:05.997Z,99853.55
2018-12-11T21:52:35.072Z,99855.36
2018-12-11T21:55:04.199Z,99854.77
2018-12-11T21:57:33.998Z,99853.95
2018-12-11T22:00:03.449Z,99849.98
2018-12-11T22:02:32.523Z,99854.20
2018-12-11T22:05:01.679Z,99848.66
2018-12-11T22:07:30.876Z,99847.23
2018-12-11T22:09:59.976Z,99849.17
2018-12-11T22:12:29.337Z,99853.14
2018-12-11T22:14:58.428Z,99850.38
2018-12-11T22:17:27.509Z,99846.84
2018-12-11T22:19:56.608Z,99846.47
2018-12-11T22:22:25.689Z,99846.59
2018-12-11T22:24:54.783Z,99846.80
2018-12-11T22:27:23.872Z,99844.19
2018-12-11T22:29:52.968Z,99839.56
2018-12-11T22:32:22.033Z,99842.81
2018-12-11T22:34:51.149Z,99842.58
2018-12-11T22:37:20.353Z,99840.24
2018-12-11T22:39:49.456Z,99833.69
2018-12-11T22:42:18.595Z,99836.81
2018-12-11T22:44:47.693Z,99835.56
2018-12-11T22:47:16.753Z,99837.44
2018-12-11T22:49:45.829Z,99828.51
2018-12-11T22:52:14.898Z,99834.41
2018-12-11T22:54:44.965Z,99831.63
2018-12-11T22:57:14.075Z,99839.84
2018-12-11T22:59:43.177Z,99842.50
2018-12-11T23:02:12.265Z,99828.73
2018-12-11T23:04:41.342Z,99835.44
2018-12-11T23:07:10.428Z,99837.38
2018-12-11T23:09:41.609Z,99832.84
2018-12-11T23:12:10.682Z,99827.94
2018-12-11T23:14:39.794Z,99821.23
2018-12-11T23:17:08.897Z,99825.09
2018-12-11T23:19:37.990Z,99820.15
2018-12-11T23:22:07.085Z,99834.37
2018-12-11T23:24:36.340Z,99827.75
2018-12-11T23:27:05.608Z,99822.11
2018-12-11T23:29:34.708Z,99827.67
2018-12-11T23:32:03.825Z,99821.92
2018-12-11T23:34:32.926Z,99822.16
2018-12-11T23:37:02.028Z,99818.91
2018-12-11T23:39:31.133Z,99826.41
2018-12-11T23:42:00.228Z,99824.36
2018-12-11T23:44:29.349Z,99819.21
2018-12-11T23:46:58.441Z,99820.39
2018-12-11T23:49:27.527Z,99819.21
2018-12-11T23:51:56.618Z,99822.23
2018-12-11T23:54:25.750Z,99817.45
2018-12-11T23:56:54.844Z,99823.80
2018-12-11T23:59:29.133Z,99822.52
